Time;durP1;ratioP1;P1;durP2;ratioP2;P2;SDS_P1;SDS_P2;PMS_P1;PMS_P2;Temp;Humidity;BMP_temperature;BMP_pressure;BME280_temperature;BME280_humidity;BME280_pressure;Samples;Min_cycle;Max_cycle;Signal;HPM_P1;HPM_P2
2023/12/05 00:00:20;;;;;;;86.23;14.80;;;;;;;;;;4974127;28;20053;-59
2023/12/05 00:03:14;;;;;;;78.70;15.47;;;;;;;;;;4972767;28;21423;-61
2023/12/05 00:06:01;;;;;;;55.17;15.63;;;;;;;;;;4970498;28;20494;-60
2023/12/05 00:08:55;;;;;;;90.47;14.60;;;;;;;;;;4971847;28;20393;-60
2023/12/05 00:11:42;;;;;;;103.93;16.97;;;;;;;;;;4971071;28;20312;-66
2023/12/05 00:14:36;;;;;;;81.43;15.07;;;;;;;;;;4971088;28;20050;-58
2023/12/05 00:17:30;;;;;;;82.90;15.00;;;;;;;;;;4971013;28;20058;-59
2023/12/05 00:19:57;;;;;;;129.67;17.30;;;;;;;;;;4975955;28;20410;-56
2023/12/05 00:22:31;;;;;;;107.87;17.57;;;;;;;;;;4972135;28;20065;-55
2023/12/05 00:25:18;;;;;;;122.37;19.70;;;;;;;;;;4968448;28;20494;-58
2023/12/05 00:28:12;;;;;;;96.93;17.83;;;;;;;;;;4968751;28;20144;-58
2023/12/05 00:31:05;;;;;;;83.93;14.83;;;;;;;;;;4971872;28;20069;-46
2023/12/05 00:33:59;;;;;;;111.80;19.80;;;;;;;;;;4968867;28;20055;-55
2023/12/05 00:36:46;;;;;;;73.53;15.87;;;;;;;;;;4971653;28;20086;-58
2023/12/05 00:39:40;;;;;;;91.90;17.43;;;;;;;;;;4972933;28;20065;-54
2023/12/05 00:42:34;;;;;;;86.57;17.17;;;;;;;;;;4976552;28;20101;-56
2023/12/05 00:45:28;;;;;;;84.03;17.13;;;;;;;;;;4975432;28;20062;-57
2023/12/05 00:48:15;;;;;;;83.07;17.60;;;;;;;;;;4977086;28;20050;-59
2023/12/05 00:51:09;;;;;;;74.03;16.77;;;;;;;;;;4975630;28;20086;-50
2023/12/05 00:53:56;;;;;;;72.67;17.07;;;;;;;;;;4972304;28;20052;-50
2023/12/05 00:56:50;;;;;;;114.87;16.53;;;;;;;;;;4972615;28;20058;-48
2023/12/05 00:59:37;;;;;;;67.33;15.40;;;;;;;;;;4975370;28;20051;-47
2023/12/05 01:02:31;;;;;;;60.43;14.93;;;;;;;;;;4974979;28;20104;-48
2023/12/05 01:05:18;;;;;;;30.80;8.93;;;;;;;;;;4973597;28;20094;-50
2023/12/05 01:08:12;;;;;;;48.67;12.90;;;;;;;;;;4952207;28;20518;-47
2023/12/05 01:11:00;;;;;;;56.10;14.00;;;;;;;;;;4977810;28;20418;-56
2023/12/05 01:13:53;;;;;;;56.87;14.20;;;;;;;;;;4973941;28;20079;-56
2023/12/05 01:16:47;;;;;;;61.57;14.33;;;;;;;;;;4976605;28;20327;-58
2023/12/05 01:19:41;;;;;;;65.37;14.10;;;;;;;;;;4975227;28;20069;-55
2023/12/05 01:22:35;;;;;;;101.80;16.07;;;;;;;;;;4971033;28;20475;-54
2023/12/05 01:25:22;;;;;;;60.00;12.93;;;;;;;;;;4974905;28;20205;-59
2023/12/05 01:28:16;;;;;;;59.13;14.97;;;;;;;;;;4969103;28;20058;-59
2023/12/05 01:31:09;;;;;;;72.83;15.37;;;;;;;;;;4969555;28;20773;-59
2023/12/05 01:34:04;;;;;;;55.73;14.93;;;;;;;;;;4971735;28;20058;-59
2023/12/05 01:36:51;;;;;;;63.53;14.90;;;;;;;;;;4971338;28;20069;-59
2023/12/05 01:39:45;;;;;;;48.70;11.77;;;;;;;;;;4973237;28;20062;-60
2023/12/05 01:42:36;;;;;;;58.90;13.20;;;;;;;;;;4977384;28;20050;-60
2023/12/05 01:45:30;;;;;;;54.70;13.30;;;;;;;;;;4977221;28;20469;-46
2023/12/05 01:48:17;;;;;;;54.33;12.27;;;;;;;;;;4969790;28;20060;-48
2023/12/05 01:51:11;;;;;;;43.50;8.70;;;;;;;;;;4974482;28;20053;-46
2023/12/05 01:53:58;;;;;;;50.50;13.67;;;;;;;;;;4972581;28;20112;-47
2023/12/05 01:56:52;;;;;;;29.73;9.87;;;;;;;;;;4973249;28;20050;-48
2023/12/05 01:59:39;;;;;;;51.90;13.10;;;;;;;;;;4975281;28;20077;-46
2023/12/05 02:02:35;;;;;;;27.97;9.33;;;;;;;;;;4974535;28;20092;-55
2023/12/05 02:05:20;;;;;;;46.27;11.70;;;;;;;;;;4975402;28;20053;-47
2023/12/05 02:08:18;;;;;;;50.50;12.57;;;;;;;;;;4974438;28;20081;-47
2023/12/05 02:11:11;;;;;;;36.63;11.27;;;;;;;;;;4976751;28;20054;-50
2023/12/05 02:13:59;;;;;;;27.67;8.47;;;;;;;;;;4974616;28;20099;-50
2023/12/05 02:16:56;;;;;;;38.57;12.57;;;;;;;;;;4972204;28;20313;-52
2023/12/05 02:19:43;;;;;;;34.30;11.17;;;;;;;;;;4971636;28;20137;-47
2023/12/05 02:22:37;;;;;;;35.43;11.37;;;;;;;;;;4971866;28;20093;-47
2023/12/05 02:25:43;;;;;;;51.90;11.73;;;;;;;;;;4970472;28;20113;-62
2023/12/05 02:28:37;;;;;;;35.13;10.70;;;;;;;;;;4970911;28;20073;-60
2023/12/05 02:31:30;;;;;;;23.17;7.80;;;;;;;;;;4971338;28;20063;-61
2023/12/05 02:34:24;;;;;;;33.80;9.40;;;;;;;;;;4972044;28;20054;-61
2023/12/05 02:37:16;;;;;;;23.43;8.93;;;;;;;;;;4972275;28;20058;-60
2023/12/05 02:40:21;;;;;;;30.05;9.15;;;;;;;;;;4972554;28;20047;-59
2023/12/05 02:43:19;;;;;;;63.23;10.13;;;;;;;;;;4971036;28;20065;-61
2023/12/05 02:46:14;;;;;;;46.43;11.83;;;;;;;;;;4970966;28;20113;-60
2023/12/05 02:49:03;;;;;;;40.90;11.57;;;;;;;;;;4973625;28;20058;-61
2023/12/05 02:51:56;;;;;;;46.57;10.37;;;;;;;;;;4972274;28;20062;-60
2023/12/05 02:54:43;;;;;;;38.53;11.77;;;;;;;;;;4974484;28;20505;-59
2023/12/05 02:57:37;;;;;;;38.70;11.40;;;;;;;;;;4973395;28;20407;-65
2023/12/05 03:00:25;;;;;;;44.20;11.55;;;;;;;;;;4971794;28;20497;-48
2023/12/05 03:03:19;;;;;;;35.73;11.77;;;;;;;;;;4971990;28;20051;-46
2023/12/05 03:06:06;;;;;;;47.50;11.90;;;;;;;;;;4971682;28;20373;-46
2023/12/05 03:09:02;;;;;;;65.37;13.27;;;;;;;;;;4970509;28;20069;-46
2023/12/05 03:11:47;;;;;;;48.07;11.10;;;;;;;;;;4973905;28;20053;-47
2023/12/05 03:14:41;;;;;;;66.93;12.00;;;;;;;;;;4972618;28;20061;-55
2023/12/05 03:17:28;;;;;;;38.70;10.63;;;;;;;;;;4974162;28;20054;-59
2023/12/05 03:20:22;;;;;;;43.33;11.03;;;;;;;;;;4974080;28;20050;-59
2023/12/05 03:23:09;;;;;;;42.90;10.83;;;;;;;;;;4968399;28;20050;-59
2023/12/05 03:26:03;;;;;;;36.83;10.73;;;;;;;;;;4969297;28;20086;-60
2023/12/05 03:28:57;;;;;;;28.90;10.00;;;;;;;;;;4972163;28;20105;-59
2023/12/05 03:31:50;;;;;;;36.73;10.87;;;;;;;;;;4965453;28;20058;-61
2023/12/05 03:34:47;;;;;;;31.83;10.97;;;;;;;;;;4970103;28;20054;-60
2023/12/05 03:37:34;;;;;;;37.57;9.63;;;;;;;;;;4971819;28;20066;-65
2023/12/05 03:40:28;;;;;;;32.10;9.97;;;;;;;;;;4973232;28;20081;-65
2023/12/05 03:43:15;;;;;;;35.50;10.47;;;;;;;;;;4969039;28;20094;-65
2023/12/05 03:46:09;;;;;;;30.87;10.23;;;;;;;;;;4971721;28;20051;-65
2023/12/05 03:49:03;;;;;;;36.67;10.23;;;;;;;;;;4973383;28;20470;-65
2023/12/05 03:51:50;;;;;;;30.27;9.67;;;;;;;;;;4973460;28;20065;-59
2023/12/05 03:54:44;;;;;;;28.70;10.10;;;;;;;;;;4972428;28;20422;-64
2023/12/05 03:57:31;;;;;;;31.83;10.27;;;;;;;;;;4969521;28;20518;-65
2023/12/05 04:00:25;;;;;;;35.07;9.80;;;;;;;;;;4973280;28;20055;-65
2023/12/05 04:03:12;;;;;;;54.13;9.60;;;;;;;;;;4969382;28;20486;-65
2023/12/05 04:06:06;;;;;;;28.73;9.87;;;;;;;;;;4970583;28;20058;-65
2023/12/05 04:09:00;;;;;;;30.50;10.20;;;;;;;;;;4968996;28;20070;-65
2023/12/05 04:11:54;;;;;;;35.33;9.90;;;;;;;;;;4973305;28;20058;-60
2023/12/05 04:14:48;;;;;;;39.67;9.30;;;;;;;;;;4975560;28;20054;-61
2023/12/05 04:17:35;;;;;;;31.47;8.77;;;;;;;;;;4976913;28;20050;-59
2023/12/05 04:20:29;;;;;;;31.00;9.40;;;;;;;;;;4974378;28;20056;-59
2023/12/05 04:23:16;;;;;;;28.07;9.17;;;;;;;;;;4977348;28;20046;-59
2023/12/05 04:26:13;;;;;;;25.20;9.03;;;;;;;;;;4974032;28;20066;-60
2023/12/05 04:29:00;;;;;;;39.37;9.17;;;;;;;;;;4974021;28;20050;-60
2023/12/05 04:32:02;;;;;;;28.93;8.87;;;;;;;;;;4971200;28;20058;-60
2023/12/05 04:34:48;;;;;;;37.23;8.47;;;;;;;;;;4973612;28;20050;-60
2023/12/05 04:37:42;;;;;;;19.60;7.07;;;;;;;;;;4969357;28;20062;-60
2023/12/05 04:40:29;;;;;;;19.37;8.13;;;;;;;;;;4973935;28;20054;-60
2023/12/05 04:43:23;;;;;;;26.30;8.67;;;;;;;;;;4976019;28;20062;-59
2023/12/05 04:46:10;;;;;;;30.03;9.20;;;;;;;;;;4977416;28;20104;-60
2023/12/05 04:49:05;;;;;;;21.57;8.27;;;;;;;;;;4970889;28;20490;-57
2023/12/05 04:51:52;;;;;;;25.83;6.90;;;;;;;;;;4971611;28;20133;-57
2023/12/05 04:54:46;;;;;;;20.47;7.60;;;;;;;;;;4970956;28;20120;-57
2023/12/05 04:57:33;;;;;;;24.40;8.27;;;;;;;;;;4969287;28;20114;-57
2023/12/05 05:00:27;;;;;;;44.13;9.27;;;;;;;;;;4972741;28;20066;-55
2023/12/05 05:03:16;;;;;;;22.33;8.77;;;;;;;;;;4979204;28;20141;-55
2023/12/05 05:06:08;;;;;;;20.17;7.83;;;;;;;;;;4977153;28;20046;-58
2023/12/05 05:08:57;;;;;;;18.57;7.97;;;;;;;;;;4979107;28;20061;-61
2023/12/05 05:11:51;;;;;;;22.03;7.90;;;;;;;;;;4977218;28;20054;-61
2023/12/05 05:14:38;;;;;;;22.67;8.67;;;;;;;;;;4980949;28;20046;-60
2023/12/05 05:17:32;;;;;;;17.87;7.70;;;;;;;;;;4975676;28;20407;-60
2023/12/05 05:20:27;;;;;;;22.87;8.20;;;;;;;;;;4971196;28;20054;-60
2023/12/05 05:23:14;;;;;;;23.63;8.10;;;;;;;;;;4972465;28;20065;-60
2023/12/05 05:26:08;;;;;;;23.20;8.57;;;;;;;;;;4970837;28;20062;-57
2023/12/05 05:28:55;;;;;;;24.10;9.00;;;;;;;;;;4972570;28;20100;-61
2023/12/05 05:31:56;;;;;;;18.30;8.13;;;;;;;;;;4975281;28;20113;-61
2023/12/05 05:34:50;;;;;;;19.67;8.00;;;;;;;;;;4972075;28;20053;-61
2023/12/05 05:37:37;;;;;;;18.60;8.03;;;;;;;;;;4974824;28;20066;-61
2023/12/05 05:40:31;;;;;;;19.00;7.93;;;;;;;;;;4972161;28;20580;-60
2023/12/05 05:43:18;;;;;;;18.13;6.43;;;;;;;;;;4973405;28;20381;-45
2023/12/05 05:46:12;;;;;;;20.87;8.40;;;;;;;;;;4974768;28;20057;-51
2023/12/05 05:48:59;;;;;;;19.67;7.70;;;;;;;;;;4973638;28;20426;-47
2023/12/05 05:51:53;;;;;;;22.40;8.43;;;;;;;;;;4971695;28;20093;-47
2023/12/05 05:54:40;;;;;;;18.17;7.93;;;;;;;;;;4970995;28;20106;-50
2023/12/05 05:57:35;;;;;;;19.77;8.17;;;;;;;;;;4967154;28;20090;-48
2023/12/05 06:00:21;;;;;;;22.23;8.20;;;;;;;;;;4974148;28;20078;-55
2023/12/05 06:03:15;;;;;;;18.00;7.03;;;;;;;;;;4975699;28;20058;-61
2023/12/05 06:06:02;;;;;;;20.90;8.47;;;;;;;;;;4979579;28;20516;-60
2023/12/05 06:08:56;;;;;;;17.23;7.43;;;;;;;;;;4977309;28;20486;-60
2023/12/05 06:11:43;;;;;;;19.30;7.83;;;;;;;;;;4977018;28;20050;-60
2023/12/05 06:14:37;;;;;;;17.50;8.07;;;;;;;;;;4975430;28;20057;-60
2023/12/05 06:17:24;;;;;;;20.70;7.90;;;;;;;;;;4977002;28;20414;-61
2023/12/05 06:20:18;;;;;;;24.20;9.00;;;;;;;;;;4976784;28;20565;-57
2023/12/05 06:23:05;;;;;;;25.47;8.80;;;;;;;;;;4971456;28;20145;-47
2023/12/05 06:25:59;;;;;;;19.27;8.77;;;;;;;;;;4976104;28;20054;-47
2023/12/05 06:28:46;;;;;;;17.23;8.77;;;;;;;;;;4975815;28;20517;-51
2023/12/05 06:31:47;;;;;;;21.30;8.37;;;;;;;;;;4973979;28;20144;-49
2023/12/05 06:34:34;;;;;;;22.33;9.40;;;;;;;;;;4979188;28;20466;-49
2023/12/05 06:37:31;;;;;;;21.83;9.73;;;;;;;;;;4979395;28;20066;-51
2023/12/05 06:40:18;;;;;;;24.17;9.60;;;;;;;;;;4975848;28;20050;-49
2023/12/05 06:43:12;;;;;;;18.83;8.27;;;;;;;;;;4977627;28;20494;-48
2023/12/05 06:45:59;;;;;;;20.60;9.30;;;;;;;;;;4976273;28;20477;-48
2023/12/05 06:48:53;;;;;;;19.33;8.53;;;;;;;;;;4972300;28;20054;-48
2023/12/05 06:51:40;;;;;;;20.10;8.53;;;;;;;;;;4974895;28;20617;-47
2023/12/05 06:54:34;;;;;;;18.83;8.43;;;;;;;;;;4976580;28;20137;-47
2023/12/05 06:57:21;;;;;;;21.47;9.40;;;;;;;;;;4973057;28;21606;-63
2023/12/05 07:00:15;;;;;;;17.80;8.10;;;;;;;;;;4975546;28;20089;-59
2023/12/05 07:03:03;;;;;;;14.75;6.40;;;;;;;;;;4977767;28;20058;-59
2023/12/05 07:05:59;;;;;;;20.47;8.60;;;;;;;;;;4974083;28;20051;-58
2023/12/05 07:08:53;;;;;;;21.53;8.33;;;;;;;;;;4977337;28;20058;-60
2023/12/05 07:11:47;;;;;;;19.67;8.63;;;;;;;;;;4973954;28;20368;-60
2023/12/05 07:14:37;;;;;;;17.47;8.00;;;;;;;;;;4972462;28;20054;-65
2023/12/05 07:17:31;;;;;;;16.00;8.23;;;;;;;;;;4973820;28;20058;-60
2023/12/05 07:20:18;;;;;;;19.50;8.03;;;;;;;;;;4974828;28;20057;-60
2023/12/05 07:23:12;;;;;;;21.00;8.57;;;;;;;;;;4972009;28;20650;-60
2023/12/05 07:25:59;;;;;;;14.43;6.43;;;;;;;;;;4971887;28;20054;-60
2023/12/05 07:28:53;;;;;;;19.87;8.27;;;;;;;;;;4974177;28;20050;-60
2023/12/05 07:31:47;;;;;;;19.70;8.73;;;;;;;;;;4977750;28;20066;-60
2023/12/05 07:34:49;;;;;;;18.47;8.37;;;;;;;;;;4975089;28;20046;-59
2023/12/05 07:37:35;;;;;;;18.70;8.13;;;;;;;;;;4977103;28;20506;-56
2023/12/05 07:40:29;;;;;;;21.00;8.53;;;;;;;;;;4974272;28;20398;-58
2023/12/05 07:43:16;;;;;;;20.90;8.80;;;;;;;;;;4975739;28;20115;-55
2023/12/05 07:46:10;;;;;;;21.47;9.00;;;;;;;;;;4974697;28;20058;-56
2023/12/05 07:48:57;;;;;;;21.40;9.20;;;;;;;;;;4976485;28;20055;-55
2023/12/05 07:51:51;;;;;;;21.17;8.50;;;;;;;;;;4981582;28;20070;-57
2023/12/05 07:54:45;;;;;;;21.67;9.37;;;;;;;;;;4980061;28;20774;-57
2023/12/05 07:57:32;;;;;;;20.70;9.10;;;;;;;;;;4982412;28;20058;-58
2023/12/05 08:00:26;;;;;;;19.73;8.27;;;;;;;;;;4981768;28;20442;-58
2023/12/05 08:03:20;;;;;;;17.60;8.77;;;;;;;;;;4984095;28;20047;-57
2023/12/05 08:06:08;;;;;;;18.97;8.40;;;;;;;;;;4980363;28;20141;-56
2023/12/05 08:09:02;;;;;;;16.73;8.10;;;;;;;;;;4983506;28;20077;-54
2023/12/05 08:11:56;;;;;;;22.23;9.40;;;;;;;;;;4978038;28;20050;-48
2023/12/05 08:14:50;;;;;;;22.90;9.70;;;;;;;;;;4978626;28;20065;-59
2023/12/05 08:17:37;;;;;;;22.80;8.83;;;;;;;;;;4979207;28;20554;-60
2023/12/05 08:20:31;;;;;;;20.17;8.63;;;;;;;;;;4981333;28;20468;-59
2023/12/05 08:23:20;;;;;;;19.10;9.00;;;;;;;;;;4977648;28;20061;-59
2023/12/05 08:26:12;;;;;;;22.43;9.53;;;;;;;;;;4980440;28;20132;-60
2023/12/05 08:28:59;;;;;;;20.43;9.30;;;;;;;;;;4978512;28;20121;-60
2023/12/05 08:32:07;;;;;;;22.93;9.30;;;;;;;;;;4979266;28;20105;-60
2023/12/05 08:35:00;;;;;;;21.67;9.33;;;;;;;;;;4982632;28;20051;-59
2023/12/05 08:37:54;;;;;;;23.80;9.67;;;;;;;;;;4978782;28;20454;-59
2023/12/05 08:40:41;;;;;;;23.20;9.30;;;;;;;;;;4981618;28;20486;-59
2023/12/05 08:43:35;;;;;;;22.77;9.00;;;;;;;;;;4981272;28;20062;-59
2023/12/05 08:46:22;;;;;;;20.70;8.90;;;;;;;;;;4980356;28;20506;-59
2023/12/05 08:49:16;;;;;;;20.43;9.17;;;;;;;;;;4980451;28;20097;-60
2023/12/05 08:52:03;;;;;;;20.87;9.00;;;;;;;;;;4980322;28;20489;-61
2023/12/05 08:54:57;;;;;;;21.97;8.90;;;;;;;;;;4978806;28;20339;-60
2023/12/05 08:57:44;;;;;;;18.67;8.90;;;;;;;;;;4982276;28;20065;-60
2023/12/05 09:00:38;;;;;;;19.90;9.23;;;;;;;;;;4979826;28;20058;-60
2023/12/05 09:03:25;;;;;;;20.97;9.03;;;;;;;;;;4980746;28;20093;-60
2023/12/05 09:06:19;;;;;;;20.27;9.47;;;;;;;;;;4981052;28;20157;-60
2023/12/05 09:09:06;;;;;;;21.50;9.20;;;;;;;;;;4978516;28;20445;-59
2023/12/05 09:12:00;;;;;;;21.67;9.33;;;;;;;;;;4977906;28;20058;-59
2023/12/05 09:14:47;;;;;;;22.60;9.53;;;;;;;;;;4975718;28;20054;-59
2023/12/05 09:17:41;;;;;;;20.40;8.90;;;;;;;;;;4976588;28;20473;-59
2023/12/05 09:20:28;;;;;;;20.40;8.98;;;;;;;;;;4976188;28;20058;-58
2023/12/05 09:23:23;;;;;;;19.17;8.97;;;;;;;;;;4977497;28;20058;-64
2023/12/05 09:26:10;;;;;;;21.80;9.90;;;;;;;;;;4977705;28;20616;-51
2023/12/05 09:29:04;;;;;;;18.75;9.23;;;;;;;;;;4977008;28;20047;-48
2023/12/05 09:31:57;;;;;;;22.90;10.75;;;;;;;;;;4978374;28;20461;-46
2023/12/05 09:34:51;;;;;;;20.70;9.38;;;;;;;;;;4978608;28;20426;-46
2023/12/05 09:37:38;;;;;;;22.95;9.38;;;;;;;;;;4975395;28;20062;-47
2023/12/05 09:40:32;;;;;;;21.30;8.98;;;;;;;;;;4973964;28;20078;-49
2023/12/05 09:43:26;;;;;;;19.25;8.85;;;;;;;;;;4975696;28;20058;-60
2023/12/05 09:46:14;;;;;;;20.55;8.32;;;;;;;;;;4978975;28;20058;-64
2023/12/05 09:49:17;;;;;;;21.40;8.73;;;;;;;;;;4975293;28;20108;-65
2023/12/05 09:52:03;;;;;;;20.02;9.25;;;;;;;;;;4977463;28;20055;-65
2023/12/05 09:54:58;;;;;;;19.27;8.98;;;;;;;;;;4978033;28;20113;-65
2023/12/05 09:57:52;;;;;;;24.85;10.25;;;;;;;;;;4974003;28;20062;-64
2023/12/05 10:00:39;;;;;;;27.03;10.43;;;;;;;;;;4978789;28;20196;-56
2023/12/05 10:03:35;;;;;;;22.48;10.13;;;;;;;;;;4976906;28;20062;-64
2023/12/05 10:06:36;;;;;;;22.40;9.60;;;;;;;;;;4978300;28;20341;-64
2023/12/05 10:09:37;;;;;;;22.25;8.65;;;;;;;;;;4976130;28;20058;-65
2023/12/05 10:12:24;;;;;;;18.20;8.70;;;;;;;;;;4975232;28;20495;-64
2023/12/05 10:15:19;;;;;;;31.05;8.90;;;;;;;;;;4978836;28;20080;-65
2023/12/05 10:18:05;;;;;;;19.02;8.90;;;;;;;;;;4973350;28;20054;-59
2023/12/05 10:20:59;;;;;;;20.05;9.15;;;;;;;;;;4973519;28;20047;-63
2023/12/05 10:23:46;;;;;;;18.83;8.40;;;;;;;;;;4976120;28;20054;-65
2023/12/05 10:26:44;;;;;;;20.83;9.23;;;;;;;;;;4976617;28;20086;-64
2023/12/05 10:29:41;;;;;;;18.80;7.72;;;;;;;;;;4975212;28;21035;-64
2023/12/05 10:32:43;;;;;;;18.77;8.75;;;;;;;;;;4973090;28;20082;-65
2023/12/05 10:35:29;;;;;;;21.27;8.93;;;;;;;;;;4975024;28;20066;-65
2023/12/05 10:38:23;;;;;;;19.50;8.80;;;;;;;;;;4974524;28;20076;-58
2023/12/05 10:41:10;;;;;;;17.92;8.70;;;;;;;;;;4975846;28;20046;-59
2023/12/05 10:44:04;;;;;;;19.85;8.77;;;;;;;;;;4977163;28;20128;-59
2023/12/05 10:46:56;;;;;;;18.98;8.27;;;;;;;;;;4977213;28;20046;-59
2023/12/05 10:49:50;;;;;;;16.17;7.70;;;;;;;;;;4978229;28;20081;-59
2023/12/05 10:52:37;;;;;;;23.45;9.45;;;;;;;;;;4975475;28;20047;-60
2023/12/05 10:55:31;;;;;;;20.88;8.80;;;;;;;;;;4972617;28;20050;-58
2023/12/05 10:58:18;;;;;;;21.25;8.20;;;;;;;;;;4974289;28;20061;-58
2023/12/05 11:01:13;;;;;;;16.67;7.60;;;;;;;;;;4973770;28;20156;-57
2023/12/05 11:04:07;;;;;;;20.13;8.13;;;;;;;;;;4977352;28;20058;-57
2023/12/05 11:06:54;;;;;;;20.30;9.15;;;;;;;;;;4979526;28;20418;-59
2023/12/05 11:09:48;;;;;;;20.00;8.85;;;;;;;;;;4979198;28;20498;-59
2023/12/05 11:12:37;;;;;;;23.63;9.85;;;;;;;;;;4975279;28;20050;-46
2023/12/05 11:15:39;;;;;;;21.67;9.15;;;;;;;;;;4979083;28;20050;-47
2023/12/05 11:18:46;;;;;;;22.13;8.75;;;;;;;;;;4977673;28;20054;-58
2023/12/05 11:22:08;;;;;;;19.33;8.43;;;;;;;;;;4975736;28;20529;-56
2023/12/05 11:25:10;;;;;;;21.73;9.23;;;;;;;;;;4973693;28;20110;-56
2023/12/05 11:28:06;;;;;;;24.95;9.77;;;;;;;;;;4976535;28;20047;-57
2023/12/05 11:31:28;;;;;;;25.50;9.77;;;;;;;;;;4974264;28;20478;-51
2023/12/05 11:34:33;;;;;;;23.75;9.60;;;;;;;;;;4975382;28;20461;-65
2023/12/05 11:37:26;;;;;;;23.27;10.18;;;;;;;;;;4974858;28;20138;-64
2023/12/05 11:40:13;;;;;;;25.17;9.15;;;;;;;;;;4976757;28;20540;-64
2023/12/05 11:43:07;;;;;;;20.40;9.18;;;;;;;;;;4975002;28;20054;-64
2023/12/05 11:45:58;;;;;;;24.60;9.98;;;;;;;;;;4978464;28;20579;-64
2023/12/05 11:48:51;;;;;;;23.40;9.27;;;;;;;;;;4975810;28;20058;-65
2023/12/05 11:51:38;;;;;;;20.90;8.95;;;;;;;;;;4978479;28;20073;-59
2023/12/05 11:54:32;;;;;;;23.40;8.75;;;;;;;;;;4976018;28;20116;-57
2023/12/05 11:57:21;;;;;;;25.65;10.50;;;;;;;;;;4975765;28;20134;-57
2023/12/05 12:00:15;;;;;;;24.15;9.00;;;;;;;;;;4972972;28;20699;-56
2023/12/05 12:03:07;;;;;;;23.00;9.13;;;;;;;;;;4975135;28;20057;-57
2023/12/05 12:06:01;;;;;;;24.60;9.00;;;;;;;;;;4976123;28;20062;-57
2023/12/05 12:08:50;;;;;;;19.50;8.90;;;;;;;;;;4971116;28;20065;-55
2023/12/05 12:11:42;;;;;;;23.55;8.85;;;;;;;;;;4973822;28;20417;-47
2023/12/05 12:14:30;;;;;;;25.50;8.67;;;;;;;;;;4973483;28;20078;-46
2023/12/05 12:17:23;;;;;;;33.03;11.13;;;;;;;;;;4976998;28;20046;-46
2023/12/05 12:20:14;;;;;;;24.13;9.50;;;;;;;;;;4975514;28;20132;-46
2023/12/05 12:23:08;;;;;;;35.97;11.07;;;;;;;;;;4974535;28;20054;-49
2023/12/05 12:26:00;;;;;;;27.02;10.68;;;;;;;;;;4971588;28;20089;-56
2023/12/05 12:28:51;;;;;;;25.20;9.95;;;;;;;;;;4973049;28;20919;-56
2023/12/05 12:31:44;;;;;;;30.88;10.70;;;;;;;;;;4973059;28;20522;-55
2023/12/05 12:34:45;;;;;;;41.00;11.70;;;;;;;;;;4974854;28;20059;-57
2023/12/05 12:37:32;;;;;;;38.85;11.40;;;;;;;;;;4976545;28;20061;-59
2023/12/05 12:40:26;;;;;;;34.25;10.25;;;;;;;;;;4979526;28;20074;-56
2023/12/05 12:43:14;;;;;;;36.08;11.82;;;;;;;;;;4980265;28;20054;-56
2023/12/05 12:46:07;;;;;;;42.63;10.90;;;;;;;;;;4980002;28;20047;-46
2023/12/05 12:48:56;;;;;;;40.58;10.48;;;;;;;;;;4981939;28;20054;-60
2023/12/05 12:51:48;;;;;;;40.28;12.20;;;;;;;;;;4976384;28;20426;-60
2023/12/05 12:54:43;;;;;;;35.35;11.10;;;;;;;;;;4977490;28;20073;-60
2023/12/05 12:57:37;;;;;;;44.38;12.20;;;;;;;;;;4976414;28;20414;-60
2023/12/05 13:00:25;;;;;;;41.67;11.07;;;;;;;;;;4974026;28;20084;-60
2023/12/05 13:03:19;;;;;;;37.92;12.35;;;;;;;;;;4975517;28;20078;-56
2023/12/05 13:06:06;;;;;;;48.63;11.15;;;;;;;;;;4974324;28;23088;-59
2023/12/05 13:09:00;;;;;;;40.25;11.10;;;;;;;;;;4977920;28;20512;-58
2023/12/05 13:11:47;;;;;;;36.55;12.52;;;;;;;;;;4980053;28;20141;-59
2023/12/05 13:14:41;;;;;;;44.10;13.18;;;;;;;;;;4978827;28;20065;-59
2023/12/05 13:17:29;;;;;;;42.20;11.75;;;;;;;;;;4975627;28;20081;-59
2023/12/05 13:20:22;;;;;;;47.33;12.23;;;;;;;;;;4979156;28;20054;-60
2023/12/05 13:23:09;;;;;;;45.92;12.73;;;;;;;;;;4976995;28;20069;-48
2023/12/05 13:26:03;;;;;;;33.97;11.38;;;;;;;;;;4978558;28;20083;-51
2023/12/05 13:28:50;;;;;;;39.05;12.65;;;;;;;;;;4974697;28;20137;-50
2023/12/05 13:31:51;;;;;;;43.25;13.60;;;;;;;;;;4977661;28;20062;-52
2023/12/05 13:34:38;;;;;;;35.92;11.20;;;;;;;;;;4973706;28;20059;-48
2023/12/05 13:37:32;;;;;;;43.40;12.23;;;;;;;;;;4973436;28;20485;-47
2023/12/05 13:40:19;;;;;;;39.40;11.80;;;;;;;;;;4976970;28;20050;-61
2023/12/05 13:43:13;;;;;;;41.58;12.02;;;;;;;;;;4977347;28;20046;-60
2023/12/05 13:46:01;;;;;;;44.08;12.88;;;;;;;;;;4980009;28;20531;-60
2023/12/05 13:49:01;;;;;;;40.83;12.05;;;;;;;;;;4977124;28;20506;-60
2023/12/05 13:51:43;;;;;;;38.40;12.82;;;;;;;;;;4976945;28;20061;-60
2023/12/05 13:54:35;;;;;;;41.75;12.80;;;;;;;;;;4978284;28;20066;-60
2023/12/05 13:57:22;;;;;;;39.88;12.40;;;;;;;;;;4973779;28;20043;-60
2023/12/05 14:00:16;;;;;;;44.40;13.88;;;;;;;;;;4976054;28;20684;-61
2023/12/05 14:03:03;;;;;;;40.97;13.40;;;;;;;;;;4974626;28;20064;-57
2023/12/05 14:05:57;;;;;;;47.58;13.80;;;;;;;;;;4976561;28;20628;-59
2023/12/05 14:08:51;;;;;;;49.08;11.35;;;;;;;;;;4977740;28;20088;-56
2023/12/05 14:11:47;;;;;;;34.55;11.90;;;;;;;;;;4976559;28;20582;-59
2023/12/05 14:14:35;;;;;;;40.00;13.38;;;;;;;;;;4978218;28;20137;-54
2023/12/05 14:17:28;;;;;;;36.40;12.40;;;;;;;;;;4978129;28;20054;-56
2023/12/05 14:20:15;;;;;;;43.47;12.05;;;;;;;;;;4976782;28;20050;-59
2023/12/05 14:23:09;;;;;;;41.55;12.88;;;;;;;;;;4973830;28;20062;-59
2023/12/05 14:25:56;;;;;;;39.45;13.32;;;;;;;;;;4974876;28;20057;-60
2023/12/05 14:28:50;;;;;;;38.13;11.80;;;;;;;;;;4972583;28;20133;-60
2023/12/05 14:31:37;;;;;;;41.42;13.18;;;;;;;;;;4975093;28;20054;-59
2023/12/05 14:34:37;;;;;;;36.22;13.40;;;;;;;;;;4975671;28;21355;-59
2023/12/05 14:37:25;;;;;;;38.22;12.68;;;;;;;;;;4978224;28;20046;-47
2023/12/05 14:40:20;;;;;;;38.75;12.13;;;;;;;;;;4977396;28;20054;-57
2023/12/05 14:43:06;;;;;;;40.92;13.55;;;;;;;;;;4975486;28;20054;-56
2023/12/05 14:46:00;;;;;;;39.67;14.07;;;;;;;;;;4974626;28;20063;-57
2023/12/05 14:48:47;;;;;;;43.03;14.10;;;;;;;;;;4973841;28;20524;-58
2023/12/05 14:51:41;;;;;;;44.15;14.55;;;;;;;;;;4976463;28;20050;-58
2023/12/05 14:54:29;;;;;;;42.05;14.00;;;;;;;;;;4978100;28;20137;-61
2023/12/05 14:57:22;;;;;;;41.28;14.00;;;;;;;;;;4971435;28;20078;-59
2023/12/05 15:00:09;;;;;;;38.92;14.23;;;;;;;;;;4973294;28;20107;-61
2023/12/05 15:03:03;;;;;;;40.13;14.20;;;;;;;;;;4974680;28;20058;-59
2023/12/05 15:05:52;;;;;;;40.50;15.30;;;;;;;;;;4975639;28;20136;-59
2023/12/05 15:08:44;;;;;;;39.70;13.68;;;;;;;;;;4974264;28;20062;-59
2023/12/05 15:11:33;;;;;;;43.55;14.15;;;;;;;;;;4975366;28;20058;-59
2023/12/05 15:14:25;;;;;;;44.72;13.93;;;;;;;;;;4974887;28;20070;-60
2023/12/05 15:17:13;;;;;;;48.97;15.18;;;;;;;;;;4976303;28;20042;-46
2023/12/05 15:20:07;;;;;;;40.50;14.65;;;;;;;;;;4974888;28;20058;-48
2023/12/05 15:23:00;;;;;;;33.08;12.75;;;;;;;;;;4970995;28;20058;-47
2023/12/05 15:25:47;;;;;;;39.83;14.90;;;;;;;;;;4975577;28;20062;-52
2023/12/05 15:28:41;;;;;;;42.28;15.43;;;;;;;;;;4975512;28;20050;-50
2023/12/05 15:31:28;;;;;;;42.38;16.00;;;;;;;;;;4974768;28;20062;-61
2023/12/05 15:34:31;;;;;;;38.78;14.88;;;;;;;;;;4976574;28;20104;-60
2023/12/05 15:37:16;;;;;;;40.35;15.38;;;;;;;;;;4975621;28;20053;-59
2023/12/05 15:40:14;;;;;;;42.15;14.88;;;;;;;;;;4971153;28;20109;-59
2023/12/05 15:43:00;;;;;;;43.58;14.70;;;;;;;;;;4977953;28;20054;-59
2023/12/05 15:45:54;;;;;;;43.25;15.93;;;;;;;;;;4971750;28;20093;-58
2023/12/05 15:48:41;;;;;;;38.75;15.00;;;;;;;;;;4971381;28;20116;-61
2023/12/05 15:51:36;;;;;;;41.25;15.85;;;;;;;;;;4974072;28;20078;-46
2023/12/05 15:54:23;;;;;;;33.75;11.70;;;;;;;;;;4975619;28;20528;-49
2023/12/05 15:57:17;;;;;;;41.72;14.88;;;;;;;;;;4974453;28;20090;-48
2023/12/05 16:00:05;;;;;;;46.53;16.00;;;;;;;;;;4975682;28;20050;-46
2023/12/05 16:02:58;;;;;;;42.25;15.18;;;;;;;;;;4974311;28;20055;-48
2023/12/05 16:05:46;;;;;;;40.53;16.45;;;;;;;;;;4972883;28;20042;-49
2023/12/05 16:08:39;;;;;;;41.38;16.30;;;;;;;;;;4976428;28;20132;-59
2023/12/05 16:11:26;;;;;;;35.50;14.63;;;;;;;;;;4977006;28;20064;-59
2023/12/05 16:14:23;;;;;;;37.53;14.98;;;;;;;;;;4981020;28;20058;-59
2023/12/05 16:17:17;;;;;;;45.60;17.15;;;;;;;;;;4977027;28;20073;-59
2023/12/05 16:20:04;;;;;;;37.88;15.07;;;;;;;;;;4976293;28;20054;-59
2023/12/05 16:22:58;;;;;;;35.97;14.40;;;;;;;;;;4973087;28;20772;-60
2023/12/05 16:25:45;;;;;;;41.25;15.95;;;;;;;;;;4979208;28;20101;-46
2023/12/05 16:28:39;;;;;;;42.20;14.68;;;;;;;;;;4979062;28;20101;-56
2023/12/05 16:31:26;;;;;;;40.33;14.63;;;;;;;;;;4975987;28;20061;-59
2023/12/05 16:34:27;;;;;;;39.40;15.45;;;;;;;;;;4978420;28;20700;-58
2023/12/05 16:37:14;;;;;;;38.00;14.65;;;;;;;;;;4976386;28;20066;-57
2023/12/05 16:40:08;;;;;;;38.28;15.38;;;;;;;;;;4975993;28;20119;-59
2023/12/05 16:42:55;;;;;;;40.75;14.52;;;;;;;;;;4980087;28;20129;-57
2023/12/05 16:45:49;;;;;;;39.92;16.48;;;;;;;;;;4970376;28;20108;-50